createdAt,value
2019-02-06T00:00:26.879Z,19.37
2019-02-06T00:02:54.639Z,18.97
2019-02-06T00:05:22.547Z,19.03
2019-02-06T00:07:50.458Z,19.33
2019-02-06T00:10:18.644Z,19.67
2019-02-06T00:12:46.263Z,20.07
2019-02-06T00:15:13.971Z,19.10
2019-02-06T00:17:42.004Z,19.82
2019-02-06T00:20:09.662Z,20.83
2019-02-06T00:22:39.043Z,19.37
2019-02-06T00:25:06.890Z,19.50
2019-02-06T00:27:34.673Z,18.53
2019-02-06T00:30:02.719Z,18.50
2019-02-06T00:32:30.747Z,19.30
2019-02-06T00:34:58.920Z,18.33
2019-02-06T00:37:26.844Z,19.77
2019-02-06T00:39:54.653Z,19.13
2019-02-06T00:42:25.321Z,19.43
2019-02-06T00:44:53.496Z,21.10
2019-02-06T00:47:21.368Z,21.03
2019-02-06T00:49:49.332Z,19.67
2019-02-06T00:52:17.198Z,19.77
2019-02-06T00:54:44.864Z,19.10
2019-02-06T00:57:12.863Z,20.17
2019-02-06T00:59:40.902Z,18.97
2019-02-06T01:02:08.692Z,18.53
2019-02-06T01:04:36.510Z,18.65
2019-02-06T01:07:04.387Z,18.67
2019-02-06T01:09:35.149Z,18.98
2019-02-06T01:12:03.947Z,17.93
2019-02-06T01:14:32.177Z,19.83
2019-02-06T01:17:00.264Z,17.17
2019-02-06T01:19:27.870Z,18.03
2019-02-06T01:21:55.603Z,18.07
2019-02-06T01:24:23.355Z,18.10
2019-02-06T01:26:50.965Z,18.10
2019-02-06T01:29:18.713Z,17.77
2019-02-06T01:31:47.086Z,18.37
2019-02-06T01:34:14.706Z,18.67
2019-02-06T01:36:42.315Z,17.77
2019-02-06T01:39:12.529Z,21.65
2019-02-06T01:41:40.119Z,21.85
2019-02-06T01:44:08.916Z,20.50
2019-02-06T01:46:36.418Z,20.20
2019-02-06T01:49:04.467Z,19.23
2019-02-06T01:51:32.435Z,18.57
2019-02-06T01:54:00.011Z,19.48
2019-02-06T01:56:27.603Z,19.05
2019-02-06T01:58:55.226Z,18.82
2019-02-06T02:01:22.897Z,18.62
2019-02-06T02:03:50.649Z,19.80
2019-02-06T02:06:18.443Z,19.20
2019-02-06T02:08:50.084Z,20.32
2019-02-06T02:11:17.650Z,19.57
2019-02-06T02:13:45.694Z,19.73
2019-02-06T02:16:15.269Z,20.32
2019-02-06T02:18:42.864Z,19.85
2019-02-06T02:21:10.524Z,20.40
2019-02-06T02:23:38.438Z,19.52
2019-02-06T02:26:06.307Z,19.42
2019-02-06T02:28:34.455Z,19.85
2019-02-06T02:31:02.046Z,19.37
2019-02-06T02:33:29.814Z,21.33
2019-02-06T02:35:57.503Z,21.55
2019-02-06T02:38:25.123Z,21.62
2019-02-06T02:40:53.445Z,22.37
2019-02-06T02:43:23.945Z,21.55
2019-02-06T02:45:51.646Z,21.77
2019-02-06T02:48:19.220Z,20.00
2019-02-06T02:50:47.064Z,20.48
2019-02-06T02:53:14.856Z,21.35
2019-02-06T02:55:43.116Z,22.58
2019-02-06T02:58:10.906Z,22.80
2019-02-06T03:00:56.617Z,21.93
2019-02-06T03:03:34.285Z,22.15
2019-02-06T03:06:01.948Z,23.07
2019-02-06T03:08:29.947Z,23.02
2019-02-06T03:10:57.700Z,23.65
2019-02-06T03:13:27.624Z,24.37
2019-02-06T03:15:55.314Z,22.52
2019-02-06T03:18:23.058Z,23.32
2019-02-06T03:20:50.664Z,24.55
2019-02-06T03:23:18.489Z,25.20
2019-02-06T03:25:46.438Z,24.02
2019-02-06T03:28:14.229Z,27.32
2019-02-06T03:30:41.847Z,26.37
2019-02-06T03:33:09.743Z,27.35
2019-02-06T03:35:37.334Z,25.92
2019-02-06T03:38:05.096Z,26.75
2019-02-06T03:40:33.193Z,25.10
2019-02-06T03:43:00.958Z,25.02
2019-02-06T03:45:28.552Z,24.95
2019-02-06T03:47:56.410Z,25.40
2019-02-06T03:50:24.109Z,25.35
2019-02-06T03:52:51.702Z,25.72
2019-02-06T03:55:19.519Z,25.10
2019-02-06T03:57:47.112Z,24.85
2019-02-06T04:00:15.529Z,24.87
2019-02-06T04:02:43.351Z,25.08
2019-02-06T04:05:11.116Z,23.67
2019-02-06T04:07:38.715Z,24.98
2019-02-06T04:10:07.695Z,23.57
2019-02-06T04:12:35.365Z,25.10
2019-02-06T04:15:03.576Z,23.18
2019-02-06T04:17:34.820Z,23.75
2019-02-06T04:20:02.458Z,25.57
2019-02-06T04:22:30.070Z,28.62
2019-02-06T04:24:58.079Z,27.65
2019-02-06T04:27:25.663Z,29.30
2019-02-06T04:29:53.288Z,28.25
2019-02-06T04:32:23.523Z,28.50
2019-02-06T04:34:50.351Z,28.95
2019-02-06T04:37:17.955Z,26.73
2019-02-06T04:39:45.577Z,26.68
2019-02-06T04:42:13.214Z,28.10
2019-02-06T04:44:40.828Z,25.82
2019-02-06T04:47:08.443Z,26.10
2019-02-06T04:49:36.056Z,26.55
2019-02-06T04:52:04.366Z,25.43
2019-02-06T04:54:31.957Z,25.72
2019-02-06T04:56:59.754Z,25.35
2019-02-06T04:59:27.354Z,25.02
2019-02-06T05:01:54.996Z,28.20
2019-02-06T05:04:22.603Z,27.35
2019-02-06T05:06:50.253Z,29.60
2019-02-06T05:09:18.610Z,30.67
2019-02-06T05:11:46.249Z,27.07
2019-02-06T05:14:13.827Z,28.98
2019-02-06T05:16:41.493Z,28.52
2019-02-06T05:19:09.259Z,28.47
2019-02-06T05:21:37.205Z,29.23
2019-02-06T05:24:05.217Z,27.93
2019-02-06T05:26:33.510Z,29.60
2019-02-06T05:29:01.444Z,29.70
2019-02-06T05:31:29.065Z,29.45
2019-02-06T05:33:56.655Z,29.87
2019-02-06T05:36:24.282Z,29.32
2019-02-06T05:38:52.003Z,30.12
2019-02-06T05:41:19.797Z,31.07
2019-02-06T05:43:47.409Z,31.80
2019-02-06T05:46:15.100Z,33.80
2019-02-06T05:48:42.754Z,31.37
2019-02-06T05:51:10.546Z,30.70
2019-02-06T05:53:38.214Z,31.82
2019-02-06T05:56:05.803Z,30.70
2019-02-06T05:58:33.480Z,31.35
2019-02-06T06:01:01.464Z,31.52
2019-02-06T06:03:29.319Z,32.05
2019-02-06T06:05:59.820Z,31.48
2019-02-06T06:08:27.645Z,32.05
2019-02-06T06:10:55.303Z,32.53
2019-02-06T06:13:22.928Z,31.77
2019-02-06T06:15:50.871Z,31.57
2019-02-06T06:18:21.824Z,31.82
2019-02-06T06:20:48.022Z,30.82
2019-02-06T06:23:15.802Z,32.13
2019-02-06T06:25:43.419Z,31.97
2019-02-06T06:28:11.375Z,32.05
2019-02-06T06:30:39.493Z,30.82
2019-02-06T06:33:10.487Z,31.52
2019-02-06T06:35:38.226Z,31.10
2019-02-06T06:38:06.517Z,31.97
2019-02-06T06:40:34.293Z,32.38
2019-02-06T06:43:01.920Z,31.60
2019-02-06T06:45:32.609Z,30.25
2019-02-06T06:48:00.174Z,31.70
2019-02-06T06:50:32.823Z,31.93
2019-02-06T06:53:00.681Z,31.85
2019-02-06T06:55:28.427Z,31.45
2019-02-06T06:57:56.279Z,31.02
2019-02-06T07:00:26.578Z,31.35
2019-02-06T07:02:54.855Z,30.60
2019-02-06T07:05:23.760Z,31.35
2019-02-06T07:07:55.109Z,30.37
2019-02-06T07:10:26.482Z,32.20
2019-02-06T07:12:57.049Z,31.55
2019-02-06T07:15:29.027Z,29.65
2019-02-06T07:17:57.262Z,29.85
2019-02-06T07:20:26.522Z,31.17
2019-02-06T07:22:57.076Z,30.08
2019-02-06T07:25:25.647Z,29.67
2019-02-06T07:27:56.376Z,30.72
2019-02-06T07:30:29.098Z,30.35
2019-02-06T07:32:56.819Z,31.05
2019-02-06T07:35:27.762Z,28.80
2019-02-06T07:37:55.841Z,30.30
2019-02-06T07:40:26.592Z,29.75
2019-02-06T07:43:00.718Z,28.12
2019-02-06T07:45:28.295Z,29.15
2019-02-06T07:47:55.954Z,28.90
2019-02-06T07:50:28.770Z,29.90
2019-02-06T07:52:56.757Z,28.70
2019-02-06T07:55:24.881Z,28.90
2019-02-06T07:57:54.422Z,29.75
2019-02-06T08:00:23.768Z,29.80
2019-02-06T08:02:52.719Z,29.23
2019-02-06T08:05:20.682Z,28.37
2019-02-06T08:07:51.429Z,29.07
2019-02-06T08:10:27.492Z,30.08
2019-02-06T08:12:55.564Z,28.90
2019-02-06T08:15:25.576Z,27.63
2019-02-06T08:17:56.008Z,29.90
2019-02-06T08:20:24.447Z,29.67
2019-02-06T08:22:52.522Z,30.67
2019-02-06T08:25:23.436Z,29.73
2019-02-06T08:27:51.208Z,29.23
2019-02-06T08:30:27.563Z,29.53
2019-02-06T08:32:55.494Z,28.37
2019-02-06T08:35:23.295Z,29.00
2019-02-06T08:37:54.786Z,27.77
2019-02-06T08:40:26.331Z,28.33
2019-02-06T08:42:54.457Z,27.23
2019-02-06T08:45:22.326Z,26.87
2019-02-06T08:47:50.070Z,26.30
2019-02-06T08:50:19.711Z,25.27
2019-02-06T08:52:47.693Z,25.90
2019-02-06T08:55:17.803Z,26.43
2019-02-06T08:57:45.378Z,27.37
2019-02-06T09:00:24.996Z,26.93
2019-02-06T09:02:52.679Z,25.47
2019-02-06T09:05:20.324Z,26.57
2019-02-06T09:07:48.778Z,27.40
2019-02-06T09:10:18.200Z,27.13
2019-02-06T09:12:45.893Z,27.07
2019-02-06T09:15:19.021Z,26.63
2019-02-06T09:17:46.576Z,28.00
2019-02-06T09:20:21.769Z,27.00
2019-02-06T09:22:49.404Z,28.33
2019-02-06T09:25:18.040Z,24.43
2019-02-06T09:27:45.931Z,25.80
2019-02-06T09:30:16.071Z,25.80
2019-02-06T09:32:43.637Z,26.63
2019-02-06T09:35:11.635Z,27.00
2019-02-06T09:37:40.571Z,31.90
2019-02-06T09:40:09.530Z,28.50
2019-02-06T09:42:37.623Z,24.70
2019-02-06T09:45:06.139Z,26.00
2019-02-06T09:47:36.574Z,25.60
2019-02-06T09:50:07.537Z,24.97
2019-02-06T09:52:38.212Z,24.17
2019-02-06T09:55:08.309Z,25.17
2019-02-06T09:57:38.253Z,24.30
2019-02-06T10:00:08.658Z,24.30
2019-02-06T10:02:36.410Z,23.47
2019-02-06T10:05:05.557Z,23.37
2019-02-06T10:07:33.511Z,18.83
2019-02-06T10:10:05.404Z,22.03
2019-02-06T10:12:36.136Z,24.57
2019-02-06T10:15:05.694Z,23.00
2019-02-06T10:17:36.103Z,23.20
2019-02-06T10:20:03.303Z,24.87
2019-02-06T10:22:38.703Z,23.63
2019-02-06T10:25:09.646Z,18.73
2019-02-06T10:27:37.435Z,21.73
2019-02-06T10:30:10.856Z,24.93
2019-02-06T10:32:38.499Z,21.93
2019-02-06T10:35:06.498Z,22.13
2019-02-06T10:37:35.496Z,20.70
2019-02-06T10:40:03.447Z,23.10
2019-02-06T10:42:31.127Z,22.33
2019-02-06T10:44:59.158Z,23.17
2019-02-06T10:47:27.278Z,21.13
2019-02-06T10:49:57.450Z,21.23
2019-02-06T10:52:25.118Z,21.23
2019-02-06T10:54:53.083Z,22.40
2019-02-06T10:57:24.335Z,21.57
2019-02-06T10:59:53.790Z,23.70
2019-02-06T11:02:41.066Z,20.93
2019-02-06T11:05:09.401Z,21.37
2019-02-06T11:07:39.790Z,24.17
2019-02-06T11:10:08.191Z,19.90
2019-02-06T11:12:37.512Z,23.03
2019-02-06T11:15:09.042Z,24.10
2019-02-06T11:17:37.146Z,19.33
2019-02-06T11:20:08.191Z,22.33
2019-02-06T11:22:36.719Z,20.47
2019-02-06T11:25:07.759Z,21.43
2019-02-06T11:27:35.607Z,22.13
2019-02-06T11:30:06.582Z,20.53
2019-02-06T11:32:37.453Z,20.27
2019-02-06T11:35:08.117Z,20.17
2019-02-06T11:37:36.799Z,20.30
2019-02-06T11:40:07.606Z,19.60
2019-02-06T11:42:36.446Z,21.23
2019-02-06T11:45:06.391Z,19.07
2019-02-06T11:47:34.327Z,20.40
2019-02-06T11:50:08.694Z,19.40
2019-02-06T11:52:37.282Z,20.33
2019-02-06T11:55:08.828Z,20.37
2019-02-06T11:57:52.745Z,19.57
2019-02-06T12:00:41.557Z,17.33
2019-02-06T12:03:09.433Z,15.27
2019-02-06T12:05:37.606Z,17.87
2019-02-06T12:08:07.438Z,18.73
2019-02-06T12:10:35.409Z,18.10
2019-02-06T12:13:03.734Z,17.73
2019-02-06T12:15:44.458Z,17.37
2019-02-06T12:18:35.884Z,17.57
2019-02-06T12:21:06.796Z,16.87
2019-02-06T12:23:34.962Z,29.27
2019-02-06T12:26:03.490Z,17.77
2019-02-06T12:28:38.114Z,17.70
2019-02-06T12:31:13.288Z,18.63
2019-02-06T12:33:41.323Z,18.30
2019-02-06T12:36:09.333Z,20.03
2019-02-06T12:38:39.519Z,18.50
2019-02-06T12:41:08.177Z,19.03
2019-02-06T12:43:35.811Z,18.10
2019-02-06T12:46:04.483Z,16.67
2019-02-06T12:48:40.135Z,19.60
2019-02-06T12:51:10.351Z,16.43
2019-02-06T12:53:41.591Z,15.50
2019-02-06T12:56:15.206Z,16.70
2019-02-06T12:58:42.842Z,17.17
2019-02-06T13:01:16.075Z,17.37
2019-02-06T13:03:45.571Z,18.13
2019-02-06T13:06:15.858Z,15.70
2019-02-06T13:08:45.648Z,17.70
2019-02-06T13:11:13.620Z,18.20
2019-02-06T13:13:41.481Z,17.33
2019-02-06T13:16:12.594Z,18.13
2019-02-06T13:18:40.531Z,17.43
2019-02-06T13:21:08.334Z,17.40
2019-02-06T13:23:36.411Z,17.30
2019-02-06T13:26:08.844Z,17.40
2019-02-06T13:28:36.331Z,18.90
2019-02-06T13:31:04.963Z,15.80
2019-02-06T13:33:33.476Z,18.60
2019-02-06T13:36:08.563Z,19.23
2019-02-06T13:38:36.314Z,17.33
2019-02-06T13:41:04.091Z,16.60
2019-02-06T13:43:34.672Z,18.13
2019-02-06T13:46:02.600Z,17.73
2019-02-06T13:48:30.197Z,17.10
2019-02-06T13:50:57.882Z,18.93
2019-02-06T13:53:29.195Z,17.93
2019-02-06T13:55:57.358Z,17.37
2019-02-06T13:58:28.036Z,15.63
2019-02-06T14:00:55.628Z,14.17
2019-02-06T14:03:26.078Z,18.30
2019-02-06T14:05:56.573Z,17.23
2019-02-06T14:08:26.862Z,17.30
2019-02-06T14:11:00.541Z,19.47
2019-02-06T14:13:27.663Z,18.23
2019-02-06T14:16:04.015Z,17.87
2019-02-06T14:18:31.673Z,17.83
2019-02-06T14:21:04.699Z,20.23
2019-02-06T14:23:49.985Z,17.87
2019-02-06T14:26:48.270Z,17.13
2019-02-06T14:29:52.869Z,14.30
2019-02-06T14:32:51.631Z,16.83
2019-02-06T14:36:02.776Z,15.27
2019-02-06T14:39:10.847Z,14.83
2019-02-06T14:42:54.210Z,17.43
2019-02-06T14:45:55.759Z,17.17
2019-02-06T14:48:49.459Z,18.57
2019-02-06T14:51:43.235Z,17.03
2019-02-06T14:54:17.974Z,18.13
2019-02-06T14:57:31.332Z,18.90
2019-02-06T15:00:26.458Z,17.80
2019-02-06T15:03:26.140Z,18.43
2019-02-06T15:06:30.347Z,17.90
2019-02-06T15:09:39.487Z,18.57
2019-02-06T15:12:44.867Z,18.87
2019-02-06T15:15:45.744Z,18.03
2019-02-06T15:18:47.047Z,18.13
2019-02-06T15:21:51.372Z,16.60
2019-02-06T15:24:46.162Z,21.27
2019-02-06T15:27:38.297Z,19.10
2019-02-06T15:30:39.293Z,17.87
2019-02-06T15:33:24.209Z,17.40
2019-02-06T15:36:29.681Z,18.30
2019-02-06T15:39:44.542Z,18.17
2019-02-06T15:42:56.155Z,18.80
2019-02-06T15:45:50.500Z,16.93
2019-02-06T15:48:59.706Z,18.13
2019-02-06T15:52:24.504Z,17.90
2019-02-06T15:55:52.486Z,17.90
2019-02-06T15:59:11.506Z,17.60
2019-02-06T16:02:16.725Z,18.60
2019-02-06T16:05:25.021Z,17.53
2019-02-06T16:08:32.826Z,17.97
2019-02-06T16:11:20.231Z,17.57
2019-02-06T16:14:29.746Z,18.37
2019-02-06T16:17:43.442Z,19.23
2019-02-06T16:21:03.137Z,17.23
2019-02-06T16:23:51.688Z,20.13
2019-02-06T16:27:05.720Z,19.43
2019-02-06T16:30:30.304Z,18.93
2019-02-06T16:34:00.309Z,19.13
2019-02-06T16:37:04.319Z,18.00
2019-02-06T16:40:05.059Z,19.40
2019-02-06T16:43:41.677Z,17.50
2019-02-06T16:47:01.883Z,20.07
2019-02-06T16:49:59.412Z,19.27
2019-02-06T16:52:44.694Z,18.63
2019-02-06T16:55:41.275Z,19.30
2019-02-06T16:58:49.210Z,18.23
2019-02-06T17:02:00.767Z,19.90
2019-02-06T17:05:12.007Z,18.07
2019-02-06T17:08:23.865Z,19.43
2019-02-06T17:11:12.428Z,16.87
2019-02-06T17:14:29.941Z,18.57
2019-02-06T17:17:42.505Z,19.35
2019-02-06T17:20:58.412Z,19.20
2019-02-06T17:24:17.123Z,19.87
2019-02-06T17:27:00.929Z,19.43
2019-02-06T17:30:11.305Z,19.92
2019-02-06T17:33:28.201Z,19.73
2019-02-06T17:36:59.283Z,19.90
2019-02-06T17:40:29.315Z,20.23
2019-02-06T17:43:20.539Z,19.87
2019-02-06T17:46:39.499Z,20.35
2019-02-06T17:49:44.801Z,21.13
2019-02-06T17:52:48.590Z,19.77
2019-02-06T17:55:29.147Z,21.20
2019-02-06T17:58:00.846Z,20.00
2019-02-06T18:00:38.177Z,23.83
2019-02-06T18:03:09.758Z,22.32
2019-02-06T18:05:40.112Z,20.97
2019-02-06T18:08:07.505Z,20.57
2019-02-06T18:10:37.997Z,23.38
2019-02-06T18:13:26.620Z,24.43
2019-02-06T18:15:59.844Z,25.70
2019-02-06T18:18:29.883Z,20.70
2019-02-06T18:20:57.897Z,21.30
2019-02-06T18:23:25.810Z,19.73
2019-02-06T18:26:15.186Z,20.57
2019-02-06T18:28:44.706Z,18.65
2019-02-06T18:31:14.330Z,18.55
2019-02-06T18:33:42.665Z,21.25
2019-02-06T18:36:10.403Z,20.72
2019-02-06T18:38:46.799Z,19.17
2019-02-06T18:41:13.222Z,19.67
2019-02-06T18:43:43.355Z,21.80
2019-02-06T18:46:16.221Z,20.32
2019-02-06T18:49:09.428Z,19.60
2019-02-06T18:51:38.123Z,19.70
2019-02-06T18:54:11.035Z,20.03
2019-02-06T18:56:39.559Z,20.15
2019-02-06T18:59:09.523Z,19.33
2019-02-06T19:01:40.434Z,20.60
2019-02-06T19:04:19.120Z,20.37
2019-02-06T19:06:49.559Z,21.37
2019-02-06T19:09:25.280Z,20.53
2019-02-06T19:11:53.442Z,20.88
2019-02-06T19:14:50.227Z,21.70
2019-02-06T19:17:18.474Z,20.63
2019-02-06T19:20:10.143Z,20.53
2019-02-06T19:22:43.466Z,19.43
2019-02-06T19:25:12.051Z,21.27
2019-02-06T19:27:41.722Z,21.37
2019-02-06T19:30:26.233Z,22.52
2019-02-06T19:35:52.523Z,25.20
2019-02-06T19:38:24.032Z,21.90
2019-02-06T19:40:51.736Z,26.68
2019-02-06T19:43:22.763Z,25.50
2019-02-06T19:45:50.623Z,29.50
2019-02-06T19:48:20.210Z,29.30
2019-02-06T19:50:50.352Z,21.73
2019-02-06T19:53:20.467Z,22.13
2019-02-06T19:55:48.169Z,22.50
2019-02-06T19:58:18.244Z,21.57
2019-02-06T20:00:46.444Z,23.07
2019-02-06T20:03:21.077Z,21.00
2019-02-06T20:05:57.834Z,21.50
2019-02-06T20:08:25.719Z,22.27
2019-02-06T20:10:53.855Z,21.33
2019-02-06T20:13:21.532Z,21.93
2019-02-06T20:15:52.788Z,22.80
2019-02-06T20:18:23.191Z,26.00
2019-02-06T20:21:00.744Z,22.32
2019-02-06T20:23:28.658Z,21.25
2019-02-06T20:26:18.711Z,21.80
2019-02-06T20:28:49.208Z,23.35
2019-02-06T20:31:21.723Z,22.75
2019-02-06T20:33:49.440Z,21.70
2019-02-06T20:36:17.109Z,21.82
2019-02-06T20:38:52.279Z,22.60
2019-02-06T20:41:29.962Z,23.15
2019-02-06T20:43:57.639Z,21.93
2019-02-06T20:46:25.533Z,20.32
2019-02-06T20:48:55.980Z,20.88
2019-02-06T20:51:24.421Z,19.95
2019-02-06T20:53:55.174Z,22.98
2019-02-06T20:56:23.777Z,21.57
2019-02-06T20:58:51.549Z,21.17
2019-02-06T21:01:29.816Z,20.80
2019-02-06T21:04:05.210Z,21.80
2019-02-06T21:06:40.451Z,22.93
2019-02-06T21:09:21.652Z,21.33
2019-02-06T21:11:54.519Z,21.02
2019-02-06T21:14:27.104Z,21.80
2019-02-06T21:16:55.132Z,22.15
2019-02-06T21:19:29.103Z,20.65
2019-02-06T21:21:59.606Z,21.93
2019-02-06T21:24:27.712Z,22.63
2019-02-06T21:26:55.654Z,21.60
2019-02-06T21:29:24.118Z,21.77
2019-02-06T21:31:51.959Z,20.88
2019-02-06T21:34:28.704Z,21.50
2019-02-06T21:36:59.107Z,19.65
2019-02-06T21:39:31.757Z,21.45
2019-02-06T21:42:02.368Z,20.52
2019-02-06T21:44:30.414Z,21.42
2019-02-06T21:47:00.950Z,20.27
2019-02-06T21:49:31.420Z,20.08
2019-02-06T21:51:59.332Z,19.82
2019-02-06T21:54:27.174Z,20.72
2019-02-06T21:56:56.133Z,20.85
2019-02-06T21:59:26.303Z,20.48
2019-02-06T22:01:54.297Z,19.87
2019-02-06T22:04:25.208Z,20.17
2019-02-06T22:06:53.188Z,19.60
2019-02-06T22:09:23.774Z,20.05
2019-02-06T22:11:51.545Z,19.95
2019-02-06T22:14:19.152Z,20.57
2019-02-06T22:16:47.129Z,19.27
2019-02-06T22:19:15.494Z,19.45
2019-02-06T22:21:43.332Z,19.57
2019-02-06T22:24:14.337Z,20.45
2019-02-06T22:26:43.663Z,20.60
2019-02-06T22:29:15.095Z,20.15
2019-02-06T22:31:43.470Z,20.65
2019-02-06T22:34:11.308Z,20.75
2019-02-06T22:36:41.589Z,19.02
2019-02-06T22:39:10.722Z,20.20
2019-02-06T22:41:39.298Z,20.55
2019-02-06T22:44:09.842Z,21.15
2019-02-06T22:46:37.490Z,21.33
2019-02-06T22:49:05.591Z,20.15
2019-02-06T22:51:42.655Z,21.33
2019-02-06T23:02:33.729Z,20.65
2019-02-06T23:16:17.269Z,21.70
2019-02-06T23:18:45.532Z,20.15
2019-02-06T23:21:13.219Z,21.17
2019-02-06T23:23:41.315Z,21.02
2019-02-06T23:26:16.718Z,21.23
2019-02-06T23:28:49.464Z,20.70
2019-02-06T23:31:17.064Z,20.32
2019-02-06T23:33:44.738Z,20.97
2019-02-06T23:36:12.883Z,21.25
2019-02-06T23:38:40.581Z,20.30
2019-02-06T23:41:08.181Z,22.22
2019-02-06T23:43:36.064Z,20.48
2019-02-06T23:46:18.114Z,22.35
2019-02-06T23:48:47.003Z,21.40
2019-02-06T23:51:14.600Z,21.27
2019-02-06T23:53:46.050Z,22.70
2019-02-06T23:56:14.026Z,21.48
2019-02-06T23:58:41.822Z,22.37
